sensor_id;sensor_type;location;lat;lon;timestamp;pressure;altitude;pressure_sealevel;temperature;humidity
62948;BME280;51940;52.126;-0.994;2023-05-29T00:02:05;101195.25;;;9.02;100.00
62948;BME280;51940;52.126;-0.994;2023-05-29T00:04:31;101195.30;;;8.93;100.00
62948;BME280;51940;52.126;-0.994;2023-05-29T00:06:57;101192.65;;;8.88;100.00
62948;BME280;51940;52.126;-0.994;2023-05-29T00:09:22;101195.52;;;8.82;100.00
62948;BME280;51940;52.126;-0.994;2023-05-29T00:11:48;101198.02;;;8.78;100.00
62948;BME280;51940;52.126;-0.994;2023-05-29T00:14:18;101188.64;;;8.72;100.00
62948;BME280;51940;52.126;-0.994;2023-05-29T00:16:45;101182.93;;;8.71;100.00
62948;BME280;51940;52.126;-0.994;2023-05-29T00:19:15;101184.54;;;8.68;100.00
62948;BME280;51940;52.126;-0.994;2023-05-29T00:21:45;101186.35;;;8.66;100.00
62948;BME280;51940;52.126;-0.994;2023-05-29T00:24:14;101182.80;;;8.65;100.00
62948;BME280;51940;52.126;-0.994;2023-05-29T00:26:40;101184.39;;;8.61;100.00
62948;BME280;51940;52.126;-0.994;2023-05-29T00:29:06;101183.70;;;8.57;100.00
62948;BME280;51940;52.126;-0.994;2023-05-29T00:31:31;101178.36;;;8.54;100.00
62948;BME280;51940;52.126;-0.994;2023-05-29T00:33:57;101175.17;;;8.53;100.00
62948;BME280;51940;52.126;-0.994;2023-05-29T00:36:23;101184.44;;;8.48;100.00
62948;BME280;51940;52.126;-0.994;2023-05-29T00:38:49;101192.27;;;8.45;100.00
62948;BME280;51940;52.126;-0.994;2023-05-29T00:41:15;101191.19;;;8.45;100.00
62948;BME280;51940;52.126;-0.994;2023-05-29T00:43:41;101194.77;;;8.47;100.00
62948;BME280;51940;52.126;-0.994;2023-05-29T00:46:07;101190.84;;;8.48;100.00
62948;BME280;51940;52.126;-0.994;2023-05-29T00:48:33;101191.36;;;8.51;100.00
62948;BME280;51940;52.126;-0.994;2023-05-29T00:50:59;101187.64;;;8.50;100.00
62948;BME280;51940;52.126;-0.994;2023-05-29T00:53:25;101179.65;;;8.46;100.00
62948;BME280;51940;52.126;-0.994;2023-05-29T00:55:51;101175.92;;;8.41;100.00
62948;BME280;51940;52.126;-0.994;2023-05-29T00:58:18;101181.80;;;8.38;100.00
62948;BME280;51940;52.126;-0.994;2023-05-29T01:00:44;101186.41;;;8.33;100.00
62948;BME280;51940;52.126;-0.994;2023-05-29T01:03:12;101177.35;;;8.29;100.00
62948;BME280;51940;52.126;-0.994;2023-05-29T01:05:40;101172.73;;;8.25;100.00
62948;BME280;51940;52.126;-0.994;2023-05-29T01:08:07;101167.94;;;8.20;100.00
62948;BME280;51940;52.126;-0.994;2023-05-29T01:10:33;101165.80;;;8.17;100.00
62948;BME280;51940;52.126;-0.994;2023-05-29T01:13:09;101159.94;;;8.18;100.00
62948;BME280;51940;52.126;-0.994;2023-05-29T01:15:46;101159.59;;;8.17;100.00
62948;BME280;51940;52.126;-0.994;2023-05-29T01:18:26;101161.73;;;8.14;100.00
62948;BME280;51940;52.126;-0.994;2023-05-29T01:21:09;101159.79;;;8.08;100.00
62948;BME280;51940;52.126;-0.994;2023-05-29T01:26:45;101151.98;;;7.97;100.00
62948;BME280;51940;52.126;-0.994;2023-05-29T01:29:14;101145.23;;;7.94;100.00
62948;BME280;51940;52.126;-0.994;2023-05-29T01:31:42;101145.25;;;7.90;100.00
62948;BME280;51940;52.126;-0.994;2023-05-29T01:34:07;101143.65;;;7.85;100.00
62948;BME280;51940;52.126;-0.994;2023-05-29T01:36:33;101137.97;;;7.82;100.00
62948;BME280;51940;52.126;-0.994;2023-05-29T01:38:59;101132.12;;;7.80;100.00
62948;BME280;51940;52.126;-0.994;2023-05-29T01:41:26;101126.26;;;7.78;100.00
62948;BME280;51940;52.126;-0.994;2023-05-29T01:43:52;101121.98;;;7.75;100.00
62948;BME280;51940;52.126;-0.994;2023-05-29T01:46:20;101123.41;;;7.75;100.00
62948;BME280;51940;52.126;-0.994;2023-05-29T01:48:46;101126.07;;;7.77;100.00
62948;BME280;51940;52.126;-0.994;2023-05-29T01:51:12;101125.90;;;7.76;100.00
62948;BME280;51940;52.126;-0.994;2023-05-29T01:53:42;101125.55;;;7.73;100.00
62948;BME280;51940;52.126;-0.994;2023-05-29T01:56:08;101125.91;;;7.67;100.00
62948;BME280;51940;52.126;-0.994;2023-05-29T01:58:34;101117.56;;;7.66;100.00
62948;BME280;51940;52.126;-0.994;2023-05-29T02:01:01;101117.39;;;7.64;100.00
62948;BME280;51940;52.126;-0.994;2023-05-29T02:03:27;101113.30;;;7.63;100.00
62948;BME280;51940;52.126;-0.994;2023-05-29T02:05:58;101117.55;;;7.60;100.00
62948;BME280;51940;52.126;-0.994;2023-05-29T02:08:25;101115.61;;;7.57;100.00
62948;BME280;51940;52.126;-0.994;2023-05-29T02:10:50;101112.95;;;7.54;100.00
62948;BME280;51940;52.126;-0.994;2023-05-29T02:13:16;101110.30;;;7.54;100.00
62948;BME280;51940;52.126;-0.994;2023-05-29T02:15:42;101107.46;;;7.54;100.00
62948;BME280;51940;52.126;-0.994;2023-05-29T02:18:11;101110.48;;;7.54;100.00
62948;BME280;51940;52.126;-0.994;2023-05-29T02:20:39;101109.41;;;7.53;100.00
62948;BME280;51940;52.126;-0.994;2023-05-29T02:23:04;101112.41;;;7.50;100.00
62948;BME280;51940;52.126;-0.994;2023-05-29T02:25:30;101108.52;;;7.48;100.00
62948;BME280;51940;52.126;-0.994;2023-05-29T02:27:56;101104.08;;;7.46;100.00
62948;BME280;51940;52.126;-0.994;2023-05-29T02:30:21;101105.15;;;7.42;100.00
62948;BME280;51940;52.126;-0.994;2023-05-29T02:32:47;101100.00;;;7.38;100.00
62948;BME280;51940;52.126;-0.994;2023-05-29T02:35:12;101098.76;;;7.37;100.00
62948;BME280;51940;52.126;-0.994;2023-05-29T02:37:42;101098.57;;;7.34;100.00
62948;BME280;51940;52.126;-0.994;2023-05-29T02:40:08;101099.98;;;7.31;100.00
62948;BME280;51940;52.126;-0.994;2023-05-29T02:42:34;101102.29;;;7.25;100.00
62948;BME280;51940;52.126;-0.994;2023-05-29T02:44:59;101102.64;;;7.23;100.00
62948;BME280;51940;52.126;-0.994;2023-05-29T02:47:24;101098.91;;;7.24;100.00
62948;BME280;51940;52.126;-0.994;2023-05-29T02:49:50;101101.05;;;7.25;100.00
62948;BME280;51940;52.126;-0.994;2023-05-29T02:52:15;101096.97;;;7.24;100.00
62948;BME280;51940;52.126;-0.994;2023-05-29T02:54:41;101100.52;;;7.24;100.00
62948;BME280;51940;52.126;-0.994;2023-05-29T02:57:06;101094.48;;;7.26;100.00
62948;BME280;51940;52.126;-0.994;2023-05-29T02:59:31;101100.35;;;7.26;100.00
62948;BME280;51940;52.126;-0.994;2023-05-29T03:01:57;101107.62;;;7.18;100.00
62948;BME280;51940;52.126;-0.994;2023-05-29T03:04:23;101116.29;;;7.12;100.00
62948;BME280;51940;52.126;-0.994;2023-05-29T03:06:48;101113.09;;;7.06;100.00
62948;BME280;51940;52.126;-0.994;2023-05-29T03:09:14;101112.56;;;7.02;100.00
62948;BME280;51940;52.126;-0.994;2023-05-29T03:11:42;101104.57;;;7.00;100.00
62948;BME280;51940;52.126;-0.994;2023-05-29T03:14:08;101104.91;;;6.96;100.00
62948;BME280;51940;52.126;-0.994;2023-05-29T03:16:34;101101.20;;;6.97;100.00
62948;BME280;51940;52.126;-0.994;2023-05-29T03:19:01;101103.14;;;6.94;100.00
62948;BME280;51940;52.126;-0.994;2023-05-29T03:21:28;101105.95;;;6.91;100.00
62948;BME280;51940;52.126;-0.994;2023-05-29T03:23:53;101101.35;;;6.88;100.00
62948;BME280;51940;52.126;-0.994;2023-05-29T03:26:18;101105.25;;;6.84;100.00
62948;BME280;51940;52.126;-0.994;2023-05-29T03:28:44;101103.98;;;6.83;100.00
62948;BME280;51940;52.126;-0.994;2023-05-29T03:31:09;101107.54;;;6.81;100.00
62948;BME280;51940;52.126;-0.994;2023-05-29T03:33:36;101107.36;;;6.78;100.00
62948;BME280;51940;52.126;-0.994;2023-05-29T03:36:01;101106.27;;;6.73;100.00
62948;BME280;51940;52.126;-0.994;2023-05-29T03:38:26;101111.77;;;6.70;100.00
62948;BME280;51940;52.126;-0.994;2023-05-29T03:40:53;101114.57;;;6.64;100.00
62948;BME280;51940;52.126;-0.994;2023-05-29T03:43:19;101115.98;;;6.60;100.00
62948;BME280;51940;52.126;-0.994;2023-05-29T03:45:44;101116.50;;;6.57;100.00
62948;BME280;51940;52.126;-0.994;2023-05-29T03:48:10;101118.08;;;6.52;100.00
62948;BME280;51940;52.126;-0.994;2023-05-29T03:50:35;101118.58;;;6.48;100.00
62948;BME280;51940;52.126;-0.994;2023-05-29T03:53:00;101115.92;;;6.45;100.00
62948;BME280;51940;52.126;-0.994;2023-05-29T03:55:26;101114.33;;;6.44;100.00
62948;BME280;51940;52.126;-0.994;2023-05-29T03:57:52;101110.08;;;6.43;100.00
62948;BME280;51940;52.126;-0.994;2023-05-29T04:00:17;101110.77;;;6.42;100.00
62948;BME280;51940;52.126;-0.994;2023-05-29T04:02:43;101111.80;;;6.40;100.00
62948;BME280;51940;52.126;-0.994;2023-05-29T04:05:08;101109.69;;;6.40;100.00
62948;BME280;51940;52.126;-0.994;2023-05-29T04:07:35;101105.78;;;6.39;100.00
62948;BME280;51940;52.126;-0.994;2023-05-29T04:10:03;101102.42;;;6.40;100.00
62948;BME280;51940;52.126;-0.994;2023-05-29T04:12:29;101105.25;;;6.39;100.00
62948;BME280;51940;52.126;-0.994;2023-05-29T04:14:54;101103.84;;;6.40;100.00
62948;BME280;51940;52.126;-0.994;2023-05-29T04:17:20;101102.63;;;6.43;100.00
62948;BME280;51940;52.126;-0.994;2023-05-29T04:19:45;101110.08;;;6.43;100.00
62948;BME280;51940;52.126;-0.994;2023-05-29T04:22:11;101108.48;;;6.45;100.00
62948;BME280;51940;52.126;-0.994;2023-05-29T04:24:36;101105.14;;;6.51;100.00
62948;BME280;51940;52.126;-0.994;2023-05-29T04:27:03;101105.49;;;6.57;100.00
62948;BME280;51940;52.126;-0.994;2023-05-29T04:29:31;101111.73;;;6.60;100.00
62948;BME280;51940;52.126;-0.994;2023-05-29T04:32:01;101112.62;;;6.63;100.00
62948;BME280;51940;52.126;-0.994;2023-05-29T04:34:29;101113.36;;;6.68;100.00
62948;BME280;51940;52.126;-0.994;2023-05-29T04:36:56;101116.20;;;6.71;100.00
62948;BME280;51940;52.126;-0.994;2023-05-29T04:39:24;101113.73;;;6.76;100.00
62948;BME280;51940;52.126;-0.994;2023-05-29T04:41:52;101118.53;;;6.81;100.00
62948;BME280;51940;52.126;-0.994;2023-05-29T04:44:18;101113.94;;;6.88;100.00
62948;BME280;51940;52.126;-0.994;2023-05-29T04:46:45;101112.53;;;6.95;100.00
62948;BME280;51940;52.126;-0.994;2023-05-29T04:49:12;101112.54;;;6.99;100.00
62948;BME280;51940;52.126;-0.994;2023-05-29T04:51:38;101116.81;;;7.06;100.00
62948;BME280;51940;52.126;-0.994;2023-05-29T04:54:06;101113.98;;;7.10;100.00
62948;BME280;51940;52.126;-0.994;2023-05-29T04:56:32;101111.34;;;7.20;100.00
62948;BME280;51940;52.126;-0.994;2023-05-29T04:58:57;101119.33;;;7.25;100.00
62948;BME280;51940;52.126;-0.994;2023-05-29T05:01:24;101115.42;;;7.30;100.00
62948;BME280;51940;52.126;-0.994;2023-05-29T05:03:51;101120.23;;;7.38;100.00
62948;BME280;51940;52.126;-0.994;2023-05-29T05:06:21;101118.99;;;7.47;100.00
62948;BME280;51940;52.126;-0.994;2023-05-29T05:08:46;101115.26;;;7.54;100.00
62948;BME280;51940;52.126;-0.994;2023-05-29T05:11:13;101118.28;;;7.61;100.00
62948;BME280;51940;52.126;-0.994;2023-05-29T05:13:39;101121.83;;;7.68;100.00
62948;BME280;51940;52.126;-0.994;2023-05-29T05:16:05;101120.77;;;7.72;100.00
62948;BME280;51940;52.126;-0.994;2023-05-29T05:18:30;101120.76;;;7.74;100.00
62948;BME280;51940;52.126;-0.994;2023-05-29T05:20:56;101118.63;;;7.76;100.00
62948;BME280;51940;52.126;-0.994;2023-05-29T05:23:21;101117.55;;;7.82;100.00
62948;BME280;51940;52.126;-0.994;2023-05-29T05:25:47;101117.19;;;7.88;100.00
62948;BME280;51940;52.126;-0.994;2023-05-29T05:28:12;101118.07;;;7.95;100.00
62948;BME280;51940;52.126;-0.994;2023-05-29T05:30:38;101116.63;;;8.04;100.00
62948;BME280;51940;52.126;-0.994;2023-05-29T05:33:03;101118.02;;;8.11;100.00
62948;BME280;51940;52.126;-0.994;2023-05-29T05:35:29;101117.46;;;8.23;100.00
62948;BME280;51940;52.126;-0.994;2023-05-29T05:37:54;101118.86;;;8.38;100.00
62948;BME280;51940;52.126;-0.994;2023-05-29T05:40:24;101121.66;;;8.55;100.00
62948;BME280;51940;52.126;-0.994;2023-05-29T05:42:51;101123.17;;;8.72;100.00
62948;BME280;51940;52.126;-0.994;2023-05-29T05:45:16;101128.44;;;8.87;100.00
62948;BME280;51940;52.126;-0.994;2023-05-29T05:47:42;101134.23;;;8.99;100.00
62948;BME280;51940;52.126;-0.994;2023-05-29T05:50:07;101139.13;;;9.15;100.00
62948;BME280;51940;52.126;-0.994;2023-05-29T05:52:33;101150.27;;;9.27;100.00
62948;BME280;51940;52.126;-0.994;2023-05-29T05:54:59;101160.73;;;9.34;100.00
62948;BME280;51940;52.126;-0.994;2023-05-29T05:57:24;101169.21;;;9.42;100.00
62948;BME280;51940;52.126;-0.994;2023-05-29T05:59:51;101175.05;;;9.48;100.00
62948;BME280;51940;52.126;-0.994;2023-05-29T06:02:16;101179.45;;;9.53;100.00
62948;BME280;51940;52.126;-0.994;2023-05-29T06:04:41;101189.04;;;9.59;100.00
62948;BME280;51940;52.126;-0.994;2023-05-29T06:07:09;101190.43;;;9.64;100.00
62948;BME280;51940;52.126;-0.994;2023-05-29T06:09:34;101195.92;;;9.69;100.00
62948;BME280;51940;52.126;-0.994;2023-05-29T06:12:00;101199.44;;;9.74;100.00
62948;BME280;51940;52.126;-0.994;2023-05-29T06:14:27;101203.30;;;9.82;100.00
62948;BME280;51940;52.126;-0.994;2023-05-29T06:16:52;101208.76;;;9.88;100.00
62948;BME280;51940;52.126;-0.994;2023-05-29T06:19:18;101217.80;;;9.94;100.00
62948;BME280;51940;52.126;-0.994;2023-05-29T06:21:45;101236.99;;;9.98;100.00
62948;BME280;51940;52.126;-0.994;2023-05-29T06:24:10;101240.73;;;10.02;100.00
62948;BME280;51940;52.126;-0.994;2023-05-29T06:26:36;101251.73;;;10.05;100.00
62948;BME280;51940;52.126;-0.994;2023-05-29T06:29:02;101247.98;;;10.09;100.00
62948;BME280;51940;52.126;-0.994;2023-05-29T06:31:28;101251.13;;;10.15;100.00
62948;BME280;51940;52.126;-0.994;2023-05-29T06:33:54;101255.21;;;10.17;100.00
62948;BME280;51940;52.126;-0.994;2023-05-29T06:36:20;101262.68;;;10.23;100.00
62948;BME280;51940;52.126;-0.994;2023-05-29T06:38:47;101272.64;;;10.24;100.00
62948;BME280;51940;52.126;-0.994;2023-05-29T06:41:13;101274.26;;;10.26;100.00
62948;BME280;51940;52.126;-0.994;2023-05-29T06:43:38;101277.24;;;10.29;100.00
62948;BME280;51940;52.126;-0.994;2023-05-29T06:46:04;101285.46;;;10.28;100.00
62948;BME280;51940;52.126;-0.994;2023-05-29T06:48:33;101285.66;;;10.27;100.00
62948;BME280;51940;52.126;-0.994;2023-05-29T06:51:00;101288.16;;;10.26;100.00
62948;BME280;51940;52.126;-0.994;2023-05-29T06:53:25;101284.41;;;10.25;100.00
62948;BME280;51940;52.126;-0.994;2023-05-29T06:55:53;101285.80;;;10.30;100.00
62948;BME280;51940;52.126;-0.994;2023-05-29T06:58:18;101292.17;;;10.34;100.00
62948;BME280;51940;52.126;-0.994;2023-05-29T07:00:44;101296.40;;;10.41;100.00
62948;BME280;51940;52.126;-0.994;2023-05-29T07:03:09;101294.55;;;10.49;100.00
62948;BME280;51940;52.126;-0.994;2023-05-29T07:05:34;101294.95;;;10.63;100.00
62948;BME280;51940;52.126;-0.994;2023-05-29T07:08:00;101305.54;;;10.74;100.00
62948;BME280;51940;52.126;-0.994;2023-05-29T07:10:27;101304.38;;;10.83;100.00
62948;BME280;51940;52.126;-0.994;2023-05-29T07:12:52;101305.66;;;10.96;100.00
62948;BME280;51940;52.126;-0.994;2023-05-29T07:15:18;101314.17;;;11.01;100.00
62948;BME280;51940;52.126;-0.994;2023-05-29T07:17:43;101319.14;;;11.05;100.00
62948;BME280;51940;52.126;-0.994;2023-05-29T07:20:09;101321.79;;;11.07;100.00
62948;BME280;51940;52.126;-0.994;2023-05-29T07:22:35;101322.79;;;11.13;100.00
62948;BME280;51940;52.126;-0.994;2023-05-29T07:25:01;101317.69;;;11.22;100.00
62948;BME280;51940;52.126;-0.994;2023-05-29T07:27:26;101339.13;;;11.21;100.00
62948;BME280;51940;52.126;-0.994;2023-05-29T07:29:52;101343.50;;;11.14;100.00
62948;BME280;51940;52.126;-0.994;2023-05-29T07:32:17;101342.47;;;11.09;100.00
62948;BME280;51940;52.126;-0.994;2023-05-29T07:34:42;101348.58;;;11.06;100.00
62948;BME280;51940;52.126;-0.994;2023-05-29T07:37:08;101354.16;;;11.03;100.00
62948;BME280;51940;52.126;-0.994;2023-05-29T07:39:35;101348.75;;;11.06;100.00
62948;BME280;51940;52.126;-0.994;2023-05-29T07:42:01;101346.56;;;11.11;100.00
62948;BME280;51940;52.126;-0.994;2023-05-29T07:44:29;101348.29;;;11.16;100.00
62948;BME280;51940;52.126;-0.994;2023-05-29T07:46:55;101350.13;;;11.27;100.00
62948;BME280;51940;52.126;-0.994;2023-05-29T07:49:20;101359.11;;;11.39;100.00
62948;BME280;51940;52.126;-0.994;2023-05-29T07:51:46;101354.83;;;11.52;100.00
62948;BME280;51940;52.126;-0.994;2023-05-29T07:54:11;101359.52;;;11.77;100.00
62948;BME280;51940;52.126;-0.994;2023-05-29T07:56:37;101367.64;;;11.99;100.00
62948;BME280;51940;52.126;-0.994;2023-05-29T07:59:04;101371.66;;;12.17;100.00
62948;BME280;51940;52.126;-0.994;2023-05-29T08:01:30;101381.13;;;12.30;100.00
62948;BME280;51940;52.126;-0.994;2023-05-29T08:03:56;101384.57;;;12.38;100.00
62948;BME280;51940;52.126;-0.994;2023-05-29T08:06:22;101396.27;;;12.46;100.00
62948;BME280;51940;52.126;-0.994;2023-05-29T08:08:47;101405.27;;;12.53;100.00
62948;BME280;51940;52.126;-0.994;2023-05-29T08:11:13;101405.73;;;12.58;100.00
62948;BME280;51940;52.126;-0.994;2023-05-29T08:13:38;101417.14;;;12.71;100.00
62948;BME280;51940;52.126;-0.994;2023-05-29T08:16:04;101432.87;;;12.74;100.00
62948;BME280;51940;52.126;-0.994;2023-05-29T08:18:31;101428.28;;;12.69;100.00
62948;BME280;51940;52.126;-0.994;2023-05-29T08:20:58;101430.41;;;12.59;100.00
62948;BME280;51940;52.126;-0.994;2023-05-29T08:23:24;101436.91;;;12.57;100.00
62948;BME280;51940;52.126;-0.994;2023-05-29T08:25:50;101432.96;;;12.56;100.00
62948;BME280;51940;52.126;-0.994;2023-05-29T08:28:16;101437.11;;;12.66;100.00
62948;BME280;51940;52.126;-0.994;2023-05-29T08:30:42;101448.16;;;12.68;100.00
62948;BME280;51940;52.126;-0.994;2023-05-29T08:33:09;101463.52;;;12.59;100.00
62948;BME280;51940;52.126;-0.994;2023-05-29T08:35:34;101457.66;;;12.56;100.00
62948;BME280;51940;52.126;-0.994;2023-05-29T08:38:00;101458.73;;;12.56;100.00
62948;BME280;51940;52.126;-0.994;2023-05-29T08:40:26;101462.83;;;12.58;100.00
62948;BME280;51940;52.126;-0.994;2023-05-29T08:43:08;101477.46;;;12.60;100.00
62948;BME280;51940;52.126;-0.994;2023-05-29T08:45:42;101486.02;;;12.63;100.00
62948;BME280;51940;52.126;-0.994;2023-05-29T08:48:09;101477.73;;;12.78;100.00
62948;BME280;51940;52.126;-0.994;2023-05-29T08:50:43;101489.17;;;12.90;100.00
62948;BME280;51940;52.126;-0.994;2023-05-29T08:53:14;101499.75;;;12.88;100.00
62948;BME280;51940;52.126;-0.994;2023-05-29T08:55:44;101502.75;;;12.80;100.00
62948;BME280;51940;52.126;-0.994;2023-05-29T08:58:13;101497.91;;;12.81;100.00
62948;BME280;51940;52.126;-0.994;2023-05-29T09:00:40;101501.66;;;12.81;100.00
62948;BME280;51940;52.126;-0.994;2023-05-29T09:03:06;101522.07;;;12.82;100.00
62948;BME280;51940;52.126;-0.994;2023-05-29T09:05:32;101522.52;;;12.75;100.00
62948;BME280;51940;52.126;-0.994;2023-05-29T09:07:59;101529.75;;;12.71;100.00
62948;BME280;51940;52.126;-0.994;2023-05-29T09:10:24;101541.29;;;12.66;100.00
62948;BME280;51940;52.126;-0.994;2023-05-29T09:12:52;101539.14;;;12.66;100.00
62948;BME280;51940;52.126;-0.994;2023-05-29T09:15:23;101552.21;;;12.65;100.00
62948;BME280;51940;52.126;-0.994;2023-05-29T09:17:50;101546.84;;;12.66;100.00
62948;BME280;51940;52.126;-0.994;2023-05-29T09:20:19;101537.99;;;12.70;100.00
62948;BME280;51940;52.126;-0.994;2023-05-29T09:22:59;101539.73;;;12.74;100.00
62948;BME280;51940;52.126;-0.994;2023-05-29T09:25:27;101526.52;;;12.84;100.00
62948;BME280;51940;52.126;-0.994;2023-05-29T09:28:04;101520.77;;;13.08;100.00
62948;BME280;51940;52.126;-0.994;2023-05-29T09:32:59;101538.29;;;13.33;100.00
62948;BME280;51940;52.126;-0.994;2023-05-29T09:35:31;101548.50;;;13.44;100.00
62948;BME280;51940;52.126;-0.994;2023-05-29T09:37:57;101548.52;;;13.53;100.00
62948;BME280;51940;52.126;-0.994;2023-05-29T09:40:22;101553.10;;;13.56;100.00
62948;BME280;51940;52.126;-0.994;2023-05-29T09:42:48;101553.02;;;13.62;100.00
62948;BME280;51940;52.126;-0.994;2023-05-29T09:45:16;101566.31;;;13.60;100.00
62948;BME280;51940;52.126;-0.994;2023-05-29T09:47:43;101564.55;;;13.58;100.00
62948;BME280;51940;52.126;-0.994;2023-05-29T09:50:19;101563.36;;;13.55;100.00
62948;BME280;51940;52.126;-0.994;2023-05-29T09:52:47;101574.72;;;13.51;100.00
62948;BME280;51940;52.126;-0.994;2023-05-29T09:55:20;101565.91;;;13.53;100.00
62948;BME280;51940;52.126;-0.994;2023-05-29T09:57:47;101576.35;;;13.50;100.00
62948;BME280;51940;52.126;-0.994;2023-05-29T10:00:15;101569.84;;;13.53;100.00
62948;BME280;51940;52.126;-0.994;2023-05-29T10:02:42;101566.35;;;13.68;100.00
62948;BME280;51940;52.126;-0.994;2023-05-29T10:05:08;101575.88;;;13.86;100.00
62948;BME280;51940;52.126;-0.994;2023-05-29T10:07:36;101590.63;;;13.93;100.00
62948;BME280;51940;52.126;-0.994;2023-05-29T10:10:05;101585.27;;;14.02;100.00
62948;BME280;51940;52.126;-0.994;2023-05-29T10:12:36;101588.98;;;14.13;100.00
62948;BME280;51940;52.126;-0.994;2023-05-29T10:15:02;101595.86;;;14.20;100.00
62948;BME280;51940;52.126;-0.994;2023-05-29T10:17:33;101611.56;;;14.24;100.00
62948;BME280;51940;52.126;-0.994;2023-05-29T10:20:02;101621.77;;;14.16;100.00
62948;BME280;51940;52.126;-0.994;2023-05-29T10:22:31;101619.83;;;14.14;100.00
62948;BME280;51940;52.126;-0.994;2023-05-29T10:24:57;101617.96;;;14.18;100.00
62948;BME280;51940;52.126;-0.994;2023-05-29T10:27:23;101633.83;;;14.23;100.00
62948;BME280;51940;52.126;-0.994;2023-05-29T10:30:38;101641.95;;;14.22;100.00
62948;BME280;51940;52.126;-0.994;2023-05-29T10:33:20;101660.15;;;14.17;100.00
62948;BME280;51940;52.126;-0.994;2023-05-29T10:36:21;101655.84;;;14.07;100.00
62948;BME280;51940;52.126;-0.994;2023-05-29T10:38:52;101648.42;;;14.10;100.00
62948;BME280;51940;52.126;-0.994;2023-05-29T10:41:38;101644.50;;;14.19;100.00
62948;BME280;51940;52.126;-0.994;2023-05-29T10:47:01;101657.30;;;14.26;100.00
62948;BME280;51940;52.126;-0.994;2023-05-29T10:49:29;101664.15;;;14.33;100.00
62948;BME280;51940;52.126;-0.994;2023-05-29T10:51:57;101654.09;;;14.43;100.00
62948;BME280;51940;52.126;-0.994;2023-05-29T10:54:25;101673.07;;;14.65;100.00
62948;BME280;51940;52.126;-0.994;2023-05-29T10:56:58;101680.20;;;14.76;100.00
62948;BME280;51940;52.126;-0.994;2023-05-29T10:59:26;101678.90;;;14.95;100.00
62948;BME280;51940;52.126;-0.994;2023-05-29T11:01:55;101684.63;;;15.12;100.00
62948;BME280;51940;52.126;-0.994;2023-05-29T11:06:50;101706.70;;;15.30;100.00
62948;BME280;51940;52.126;-0.994;2023-05-29T11:09:37;101720.11;;;15.41;100.00
62948;BME280;51940;52.126;-0.994;2023-05-29T11:12:24;101720.33;;;15.47;100.00
62948;BME280;51940;52.126;-0.994;2023-05-29T11:17:48;101716.63;;;15.60;100.00
62948;BME280;51940;52.126;-0.994;2023-05-29T11:25:25;101737.34;;;15.34;100.00
62948;BME280;51940;52.126;-0.994;2023-05-29T11:27:51;101721.96;;;15.47;100.00
62948;BME280;51940;52.126;-0.994;2023-05-29T11:30:23;101719.10;;;15.70;100.00
62948;BME280;51940;52.126;-0.994;2023-05-29T11:32:51;101727.87;;;15.79;100.00
62948;BME280;51940;52.126;-0.994;2023-05-29T11:35:21;101723.96;;;15.77;100.00
62948;BME280;51940;52.126;-0.994;2023-05-29T11:37:47;101724.15;;;15.77;100.00
62948;BME280;51940;52.126;-0.994;2023-05-29T11:40:15;101729.33;;;15.71;100.00
62948;BME280;51940;52.126;-0.994;2023-05-29T11:42:42;101723.53;;;15.73;100.00
62948;BME280;51940;52.126;-0.994;2023-05-29T11:45:18;101731.38;;;15.75;100.00
62948;BME280;51940;52.126;-0.994;2023-05-29T11:47:54;101730.44;;;15.62;100.00
62948;BME280;51940;52.126;-0.994;2023-05-29T11:50:24;101723.39;;;15.64;100.00
62948;BME280;51940;52.126;-0.994;2023-05-29T11:52:53;101728.61;;;15.71;100.00
62948;BME280;51940;52.126;-0.994;2023-05-29T11:55:20;101732.69;;;15.81;100.00
62948;BME280;51940;52.126;-0.994;2023-05-29T11:57:49;101725.32;;;15.81;100.00
62948;BME280;51940;52.126;-0.994;2023-05-29T12:00:16;101715.80;;;15.94;100.00
62948;BME280;51940;52.126;-0.994;2023-05-29T12:02:43;101720.73;;;16.13;100.00
62948;BME280;51940;52.126;-0.994;2023-05-29T12:05:13;101731.33;;;16.14;100.00
62948;BME280;51940;52.126;-0.994;2023-05-29T12:07:54;101730.16;;;16.03;100.00
62948;BME280;51940;52.126;-0.994;2023-05-29T12:10:23;101723.36;;;16.02;100.00
62948;BME280;51940;52.126;-0.994;2023-05-29T12:12:58;101717.85;;;16.06;100.00
62948;BME280;51940;52.126;-0.994;2023-05-29T12:15:24;101722.68;;;16.14;100.00
62948;BME280;51940;52.126;-0.994;2023-05-29T12:17:51;101742.47;;;15.93;100.00
62948;BME280;51940;52.126;-0.994;2023-05-29T12:20:19;101719.03;;;15.81;100.00
62948;BME280;51940;52.126;-0.994;2023-05-29T12:22:45;101713.66;;;15.86;100.00
62948;BME280;51940;52.126;-0.994;2023-05-29T12:25:15;101717.70;;;15.91;100.00
62948;BME280;51940;52.126;-0.994;2023-05-29T12:27:45;101735.86;;;15.92;100.00
62948;BME280;51940;52.126;-0.994;2023-05-29T12:30:20;101741.23;;;15.92;100.00
62948;BME280;51940;52.126;-0.994;2023-05-29T12:32:52;101736.88;;;15.86;100.00
62948;BME280;51940;52.126;-0.994;2023-05-29T12:35:23;101741.45;;;15.76;100.00
62948;BME280;51940;52.126;-0.994;2023-05-29T12:37:58;101731.31;;;15.70;100.00
62948;BME280;51940;52.126;-0.994;2023-05-29T12:42:57;101719.73;;;15.88;100.00
62948;BME280;51940;52.126;-0.994;2023-05-29T12:45:29;101721.38;;;15.87;100.00
62948;BME280;51940;52.126;-0.994;2023-05-29T12:50:28;101729.97;;;15.96;100.00
62948;BME280;51940;52.126;-0.994;2023-05-29T12:55:31;101734.70;;;16.09;100.00
62948;BME280;51940;52.126;-0.994;2023-05-29T12:57:58;101732.81;;;16.12;100.00
62948;BME280;51940;52.126;-0.994;2023-05-29T13:00:24;101732.80;;;16.12;100.00
62948;BME280;51940;52.126;-0.994;2023-05-29T13:02:50;101733.14;;;16.13;100.00
62948;BME280;51940;52.126;-0.994;2023-05-29T13:05:16;101729.50;;;16.15;100.00